Time;durP1;ratioP1;P1;durP2;ratioP2;P2;SDS_P1;SDS_P2;PMS_P1;PMS_P2;Temp;Humidity;BMP_temperature;BMP_pressure;BME280_temperature;BME280_humidity;BME280_pressure;Samples;Min_cycle;Max_cycle;Signal;HPM_P1;HPM_P2
2023/11/14 00:00:06;;;;;;;11.35;6.00;;;;;;;6.02;75.89;99850.97;1782649;80;21044;-63
2023/11/14 00:02:35;;;;;;;9.43;5.10;;;;;;;6.00;75.92;99858.46;1782638;80;20973;-64
2023/11/14 00:05:05;;;;;;;8.60;4.90;;;;;;;6.00;76.09;99859.30;1782568;80;21032;-64
2023/11/14 00:07:34;;;;;;;9.10;4.60;;;;;;;6.01;76.03;99867.80;1782583;80;21016;-63
2023/11/14 00:10:03;;;;;;;8.53;4.62;;;;;;;6.02;76.04;99859.13;1782553;80;21467;-63
2023/11/14 00:12:32;;;;;;;10.68;4.80;;;;;;;6.03;76.08;99863.53;1782462;80;21475;-63
2023/11/14 00:15:00;;;;;;;8.70;4.47;;;;;;;6.04;76.02;99854.34;1782711;80;21004;-62
2023/11/14 00:17:31;;;;;;;8.78;4.80;;;;;;;6.02;76.14;99854.53;1782847;80;21103;-61
2023/11/14 00:20:05;;;;;;;9.58;4.75;;;;;;;6.04;76.21;99848.39;1761188;80;21175;-63
2023/11/14 00:22:33;;;;;;;9.43;4.58;;;;;;;6.06;76.26;99847.37;1782502;80;21064;-62
2023/11/14 00:25:03;;;;;;;10.80;4.62;;;;;;;6.06;76.37;99846.01;1790069;80;21043;-64
2023/11/14 00:27:32;;;;;;;10.05;5.03;;;;;;;6.03;76.29;99842.63;1791583;79;21008;-62
2023/11/14 00:30:01;;;;;;;9.13;5.03;;;;;;;6.00;76.32;99837.55;1791381;80;21491;-64
2023/11/14 00:32:30;;;;;;;8.40;4.80;;;;;;;6.00;76.32;99836.70;1791549;80;21443;-64
2023/11/14 00:34:59;;;;;;;8.33;4.53;;;;;;;6.00;76.34;99840.27;1791861;80;21004;-63
2023/11/14 00:37:28;;;;;;;8.38;4.30;;;;;;;5.97;76.29;99839.27;1791418;80;20984;-64
2023/11/14 00:39:59;;;;;;;9.05;4.47;;;;;;;5.95;76.38;99839.97;1791455;80;21008;-62
2023/11/14 00:42:27;;;;;;;8.80;3.85;;;;;;;5.92;76.38;99838.98;1791493;80;21035;-62
2023/11/14 00:44:56;;;;;;;8.75;4.00;;;;;;;5.90;76.46;99834.75;1791555;80;20972;-63
2023/11/14 00:47:24;;;;;;;6.08;3.58;;;;;;;5.88;76.40;99828.61;1791544;80;21116;-63
2023/11/14 00:49:53;;;;;;;12.43;4.55;;;;;;;5.87;76.56;99820.97;1791469;79;21032;-64
2023/11/14 00:52:23;;;;;;;7.45;4.22;;;;;;;5.88;76.71;99818.58;1765444;80;21056;-64
2023/11/14 00:54:51;;;;;;;7.75;4.37;;;;;;;5.89;76.77;99826.23;1791366;80;21032;-63
2023/11/14 00:57:20;;;;;;;8.50;4.47;;;;;;;5.89;76.86;99829.82;1791370;80;21044;-63
2023/11/14 00:59:49;;;;;;;9.50;4.35;;;;;;;5.90;76.95;99822.52;1791418;80;21016;-64
2023/11/14 01:02:18;;;;;;;8.88;4.17;;;;;;;5.89;76.90;99812.63;1791619;80;21036;-64
2023/11/14 01:04:47;;;;;;;9.45;4.70;;;;;;;5.87;76.96;99816.05;1791654;80;21067;-63
2023/11/14 01:07:17;;;;;;;7.75;4.35;;;;;;;5.85;76.96;99805.36;1791339;80;21175;-63
2023/11/14 01:09:48;;;;;;;10.85;4.72;;;;;;;5.84;76.98;99807.70;1791421;80;21510;-64
2023/11/14 01:12:16;;;;;;;10.50;5.00;;;;;;;5.84;76.94;99798.20;1791319;80;21021;-64
2023/11/14 01:14:45;;;;;;;9.40;5.20;;;;;;;5.83;77.00;99819.61;1791416;79;21016;-64
2023/11/14 01:17:14;;;;;;;13.00;4.85;;;;;;;5.81;77.07;99813.52;1791565;80;20997;-64
2023/11/14 01:19:45;;;;;;;7.85;4.62;;;;;;;5.79;77.16;99822.36;1791388;80;21028;-63
2023/11/14 01:22:14;;;;;;;7.05;4.15;;;;;;;5.80;77.07;99810.45;1791355;80;21484;-63
2023/11/14 01:24:43;;;;;;;7.78;4.47;;;;;;;5.76;77.14;99806.92;1786174;80;21013;-62
2023/11/14 01:27:11;;;;;;;8.05;4.42;;;;;;;5.75;77.19;99795.20;1782558;80;21009;-63
2023/11/14 01:29:40;;;;;;;10.32;5.62;;;;;;;5.75;77.22;99818.31;1782489;80;21005;-64
2023/11/14 01:32:09;;;;;;;7.78;4.85;;;;;;;5.75;77.17;99804.72;1782396;80;21064;-64
2023/11/14 01:34:38;;;;;;;7.90;5.08;;;;;;;5.70;77.02;99798.47;1782700;80;21045;-65
2023/11/14 01:37:07;;;;;;;7.58;4.30;;;;;;;5.65;77.03;99788.66;1782742;80;21080;-63
2023/11/14 01:39:36;;;;;;;12.35;4.60;;;;;;;5.60;77.07;99782.92;1782848;80;21026;-63
2023/11/14 01:42:06;;;;;;;9.28;5.50;;;;;;;5.57;77.17;99783.80;1782629;80;21024;-63
2023/11/14 01:44:34;;;;;;;9.43;5.15;;;;;;;5.55;77.31;99783.12;1782473;80;21451;-64
2023/11/14 01:47:03;;;;;;;9.05;5.50;;;;;;;5.52;77.32;99775.34;1782477;80;21311;-64
2023/11/14 01:49:32;;;;;;;10.98;4.97;;;;;;;5.47;77.39;99771.80;1782660;80;21117;-64
2023/11/14 01:52:04;;;;;;;10.80;5.33;;;;;;;5.43;77.59;99768.27;1782520;80;21039;-62
2023/11/14 01:54:33;;;;;;;6.95;4.37;;;;;;;5.40;77.68;99772.19;1782669;80;21072;-63
2023/11/14 01:57:04;;;;;;;7.95;4.37;;;;;;;5.37;77.80;99774.75;1782508;80;20977;-64
2023/11/14 01:59:33;;;;;;;7.17;4.53;;;;;;;5.32;77.80;99774.96;1760885;80;21539;-63
2023/11/14 02:02:01;;;;;;;8.75;4.47;;;;;;;5.26;77.88;99781.95;1782431;80;21005;-64
2023/11/14 02:04:30;;;;;;;8.78;4.85;;;;;;;5.19;77.97;99782.30;1782672;80;21044;-63
2023/11/14 02:06:59;;;;;;;10.10;5.10;;;;;;;5.16;78.28;99773.16;1782468;80;21029;-62
2023/11/14 02:09:27;;;;;;;9.33;5.47;;;;;;;5.13;78.40;99771.31;1782449;80;21235;-62
2023/11/14 02:11:56;;;;;;;9.85;5.10;;;;;;;5.08;78.63;99759.63;1782383;80;21480;-64
2023/11/14 02:14:25;;;;;;;8.20;4.58;;;;;;;5.04;78.86;99748.79;1782471;80;21087;-62
2023/11/14 02:16:55;;;;;;;8.20;4.72;;;;;;;5.00;78.94;99754.23;1782511;80;21472;-63
2023/11/14 02:19:24;;;;;;;9.18;5.20;;;;;;;5.01;79.10;99758.13;1782483;80;21032;-63
2023/11/14 02:21:53;;;;;;;9.28;4.75;;;;;;;4.99;79.02;99752.04;1782609;80;21166;-63
2023/11/14 02:24:21;;;;;;;8.55;5.22;;;;;;;4.95;79.07;99748.50;1782593;80;21029;-62
2023/11/14 02:26:51;;;;;;;8.50;4.97;;;;;;;4.90;79.18;99765.31;1782451;80;21095;-63
2023/11/14 02:29:21;;;;;;;11.55;5.80;;;;;;;4.90;79.37;99764.47;1782673;80;21013;-63
2023/11/14 02:31:49;;;;;;;7.37;4.55;;;;;;;4.85;79.28;99761.44;1782568;80;21048;-63
2023/11/14 02:34:18;;;;;;;10.75;5.50;;;;;;;4.82;79.47;99760.44;1782491;80;21028;-62
2023/11/14 02:36:47;;;;;;;10.15;5.40;;;;;;;4.78;79.57;99759.95;1782467;80;21272;-64
2023/11/14 02:39:15;;;;;;;8.18;4.90;;;;;;;4.75;79.69;99760.30;1782508;80;21552;-64
2023/11/14 02:41:44;;;;;;;9.88;5.40;;;;;;;4.75;79.81;99756.23;1782536;80;21032;-64
2023/11/14 02:44:13;;;;;;;9.90;4.62;;;;;;;4.70;79.75;99760.83;1782501;80;21017;-63
2023/11/14 02:46:42;;;;;;;8.83;5.05;;;;;;;4.67;79.84;99769.31;1782611;80;21044;-63
2023/11/14 02:49:35;;;;;;;9.08;5.55;;;;;;;4.68;79.99;99759.31;1782462;80;21253;-63
2023/11/14 02:52:05;;;;;;;10.88;5.42;;;;;;;4.67;79.79;99755.75;1746038;82;21059;-63
2023/11/14 02:54:34;;;;;;;8.38;5.10;;;;;;;4.62;79.95;99754.08;1751140;81;21055;-63
2023/11/14 02:57:07;;;;;;;9.80;5.17;;;;;;;4.62;80.01;99740.51;1782444;80;21059;-63
2023/11/14 02:59:34;;;;;;;9.25;5.42;;;;;;;4.62;80.01;99733.73;1782600;80;21040;-64
2023/11/14 03:02:04;;;;;;;10.13;5.08;;;;;;;4.62;79.99;99732.88;1782578;80;21080;-62
2023/11/14 03:04:33;;;;;;;9.73;5.47;;;;;;;4.62;79.97;99731.52;1782916;80;21080;-63
2023/11/14 03:07:02;;;;;;;8.95;5.10;;;;;;;4.61;79.95;99736.10;1782834;80;21026;-63
2023/11/14 03:09:32;;;;;;;9.40;5.40;;;;;;;4.60;79.84;99730.34;1782611;80;21020;-64
2023/11/14 03:12:00;;;;;;;8.63;4.87;;;;;;;4.61;79.82;99740.69;1782499;80;21000;-64
2023/11/14 03:14:30;;;;;;;10.68;5.20;;;;;;;4.61;79.76;99739.33;1782657;80;21437;-63
2023/11/14 03:16:58;;;;;;;8.68;5.25;;;;;;;4.59;79.78;99732.72;1782582;80;21104;-63
2023/11/14 03:19:29;;;;;;;9.60;5.50;;;;;;;4.58;79.83;99747.30;1782656;80;21043;-63
2023/11/14 03:21:58;;;;;;;9.25;4.97;;;;;;;4.56;79.79;99742.57;1782580;80;21073;-64
2023/11/14 03:24:27;;;;;;;8.65;5.03;;;;;;;4.53;79.70;99750.17;1782472;80;21166;-64
2023/11/14 03:26:58;;;;;;;9.50;5.55;;;;;;;4.50;79.72;99747.30;1782525;80;21545;-63
2023/11/14 03:29:26;;;;;;;9.60;5.45;;;;;;;4.47;79.73;99744.94;1782588;80;21510;-64
2023/11/14 03:31:55;;;;;;;9.23;4.97;;;;;;;4.45;79.78;99749.19;1782409;80;21163;-63
2023/11/14 03:34:24;;;;;;;10.25;4.83;;;;;;;4.45;79.77;99757.32;1782836;80;20993;-63
2023/11/14 03:36:56;;;;;;;10.68;5.75;;;;;;;4.42;79.66;99759.02;1782607;80;21091;-64
2023/11/14 03:39:26;;;;;;;10.78;5.58;;;;;;;4.40;79.70;99750.22;1761280;80;21021;-62
2023/11/14 03:41:55;;;;;;;10.48;5.25;;;;;;;4.38;79.82;99747.34;1782565;80;21013;-64
2023/11/14 03:44:24;;;;;;;10.30;5.75;;;;;;;4.39;79.88;99743.61;1760989;80;21005;-64
2023/11/14 03:46:54;;;;;;;8.85;5.30;;;;;;;4.39;79.81;99749.03;1782707;80;21203;-64
2023/11/14 03:49:23;;;;;;;9.50;5.40;;;;;;;4.38;79.83;99747.34;1782808;80;21108;-63
2023/11/14 03:51:53;;;;;;;8.85;5.55;;;;;;;4.36;79.73;99739.38;1782472;80;21152;-63
2023/11/14 03:54:22;;;;;;;9.33;5.30;;;;;;;4.35;79.76;99728.20;1760653;80;21036;-63
2023/11/14 03:56:51;;;;;;;9.63;5.25;;;;;;;4.34;79.81;99706.17;1782975;80;20994;-64
2023/11/14 03:59:23;;;;;;;11.10;5.10;;;;;;;4.35;79.98;99696.17;1782545;80;21297;-62
2023/11/14 04:01:51;;;;;;;11.12;5.33;;;;;;;4.35;80.03;99688.03;1782553;80;21024;-63
2023/11/14 04:04:20;;;;;;;9.80;5.00;;;;;;;4.37;80.02;99677.34;1782693;80;21040;-64
2023/11/14 04:06:49;;;;;;;10.85;5.53;;;;;;;4.39;79.95;99670.39;1782938;80;20984;-63
2023/11/14 04:09:18;;;;;;;13.10;6.08;;;;;;;4.39;80.06;99671.74;1782639;80;21079;-63
2023/11/14 04:11:48;;;;;;;13.03;6.53;;;;;;;4.36;79.92;99674.30;1782627;80;21091;-63
2023/11/14 04:14:18;;;;;;;11.20;5.50;;;;;;;4.25;79.93;99667.05;1782566;80;21048;-64
2023/11/14 04:16:47;;;;;;;9.78;5.87;;;;;;;4.13;80.01;99670.14;1782547;80;21012;-64
2023/11/14 04:19:16;;;;;;;13.13;6.62;;;;;;;4.03;80.11;99671.36;1782532;80;21036;-64
2023/11/14 04:21:44;;;;;;;14.70;6.97;;;;;;;3.93;80.26;99668.84;1782705;80;21036;-64
2023/11/14 04:24:13;;;;;;;14.83;7.47;;;;;;;3.86;80.56;99659.69;1782807;80;21025;-64
2023/11/14 04:26:42;;;;;;;13.62;6.87;;;;;;;3.82;80.77;99663.76;1791400;79;21045;-62
2023/11/14 04:29:11;;;;;;;17.48;7.67;;;;;;;3.74;80.97;99663.27;1791360;80;21004;-62
2023/11/14 04:31:41;;;;;;;15.08;7.28;;;;;;;3.71;81.24;99664.13;1765100;80;21027;-63
2023/11/14 04:34:10;;;;;;;13.75;7.15;;;;;;;3.67;81.50;99669.55;1791401;80;21043;-64
2023/11/14 04:36:41;;;;;;;18.05;8.03;;;;;;;3.62;81.81;99659.22;1791454;80;21444;-63
2023/11/14 04:39:12;;;;;;;16.52;8.30;;;;;;;3.57;81.93;99656.19;1791397;80;21008;-63
2023/11/14 04:41:42;;;;;;;18.10;8.55;;;;;;;3.50;82.28;99649.25;1791349;80;21005;-64
2023/11/14 04:44:12;;;;;;;19.75;9.38;;;;;;;3.48;82.59;99650.44;1791592;80;20993;-63
2023/11/14 04:46:44;;;;;;;21.70;9.90;;;;;;;3.45;82.89;99661.10;1791506;79;21001;-63
2023/11/14 04:49:13;;;;;;;19.73;9.70;;;;;;;3.40;83.18;99657.22;1791386;79;21017;-64
2023/11/14 04:51:42;;;;;;;28.47;13.58;;;;;;;3.34;83.48;99666.86;1791580;79;21004;-63
2023/11/14 04:54:13;;;;;;;29.63;13.38;;;;;;;3.29;83.85;99662.47;1791549;79;21008;-64
2023/11/14 04:56:42;;;;;;;25.32;12.47;;;;;;;3.28;84.11;99658.57;1791406;80;21471;-64
2023/11/14 04:59:10;;;;;;;22.35;11.53;;;;;;;3.29;84.41;99660.27;1791405;80;21036;-63
2023/11/14 05:01:39;;;;;;;23.07;11.25;;;;;;;3.24;84.63;99668.02;1791464;80;21005;-63
2023/11/14 05:04:07;;;;;;;22.27;9.50;;;;;;;3.22;84.95;99666.83;1791382;80;21008;-62
2023/11/14 05:06:37;;;;;;;17.50;8.78;;;;;;;3.21;85.13;99662.94;1791449;80;21032;-64
2023/11/14 05:09:05;;;;;;;18.95;9.18;;;;;;;3.22;85.36;99660.57;1791557;80;20993;-64
2023/11/14 05:11:38;;;;;;;18.15;9.05;;;;;;;3.23;85.47;99654.14;1791320;80;21035;-63
2023/11/14 05:14:06;;;;;;;16.27;8.40;;;;;;;3.24;85.63;99653.13;1791489;80;21024;-62
2023/11/14 05:16:42;;;;;;;17.60;8.98;;;;;;;3.26;85.68;99658.73;1791337;79;21461;-63
2023/11/14 05:19:11;;;;;;;16.90;8.85;;;;;;;3.27;85.74;99658.23;1791365;80;21035;-63
2023/11/14 05:21:40;;;;;;;19.45;8.58;;;;;;;3.27;85.77;99657.72;1791376;80;21032;-64
2023/11/14 05:24:09;;;;;;;16.80;8.93;;;;;;;3.28;85.81;99651.30;1791599;79;21059;-64
2023/11/14 05:26:38;;;;;;;18.85;9.50;;;;;;;3.29;85.78;99645.38;1783242;80;21072;-64
2023/11/14 05:29:07;;;;;;;17.27;7.97;;;;;;;3.29;85.81;99639.96;1782510;80;21029;-64
2023/11/14 05:31:36;;;;;;;16.77;8.80;;;;;;;3.28;85.91;99626.93;1782584;80;21036;-63
2023/11/14 05:34:05;;;;;;;15.65;9.05;;;;;;;3.32;85.96;99625.58;1782718;80;20985;-64
2023/11/14 05:36:36;;;;;;;16.67;8.55;;;;;;;3.37;85.95;99622.36;1782687;80;21056;-63
2023/11/14 05:39:05;;;;;;;19.35;9.38;;;;;;;3.38;85.88;99619.48;1782576;80;21140;-64
2023/11/14 05:41:36;;;;;;;19.75;9.48;;;;;;;3.39;85.83;99623.03;1782551;80;20969;-64
2023/11/14 05:44:05;;;;;;;17.87;8.98;;;;;;;3.37;85.78;99624.55;1782587;80;21056;-64
2023/11/14 05:46:33;;;;;;;17.40;8.30;;;;;;;3.37;85.83;99619.14;1782494;80;21009;-64
2023/11/14 05:49:02;;;;;;;16.42;8.58;;;;;;;3.41;85.89;99619.13;1782481;80;21028;-63
2023/11/14 05:51:31;;;;;;;17.75;8.80;;;;;;;3.42;85.73;99628.95;1782626;80;20977;-64
2023/11/14 05:54:00;;;;;;;19.30;9.55;;;;;;;3.44;85.66;99620.66;1782364;80;21068;-63
2023/11/14 05:56:29;;;;;;;17.85;8.80;;;;;;;3.46;85.62;99630.81;1760814;80;21064;-62
2023/11/14 05:58:57;;;;;;;18.00;9.25;;;;;;;3.50;85.61;99631.65;1782415;80;21044;-63
2023/11/14 06:01:25;;;;;;;13.58;7.55;;;;;;;3.57;85.62;99635.02;1782626;80;21044;-63
2023/11/14 06:03:54;;;;;;;15.83;7.45;;;;;;;3.66;85.56;99612.32;1782623;80;20973;-64
2023/11/14 06:06:23;;;;;;;16.62;7.05;;;;;;;3.72;85.28;99601.64;1782676;80;21148;-62
2023/11/14 06:08:53;;;;;;;14.40;6.87;;;;;;;3.77;84.85;99609.24;1782491;80;21037;-63
2023/11/14 06:11:22;;;;;;;15.20;7.15;;;;;;;3.83;84.53;99612.11;1782472;80;21009;-65
2023/11/14 06:13:53;;;;;;;16.02;7.70;;;;;;;3.89;84.32;99604.30;1782558;80;21531;-64
2023/11/14 06:16:22;;;;;;;13.95;7.35;;;;;;;3.95;84.10;99602.28;1782492;80;21040;-64
2023/11/14 06:18:53;;;;;;;16.52;7.67;;;;;;;4.00;83.83;99602.09;1782348;80;21029;-64
2023/11/14 06:21:22;;;;;;;12.53;6.60;;;;;;;4.05;83.55;99599.70;1782420;80;20985;-64
2023/11/14 06:23:53;;;;;;;12.47;7.10;;;;;;;4.11;83.27;99597.64;1760691;80;21027;-64
2023/11/14 06:26:22;;;;;;;13.83;7.10;;;;;;;4.16;82.89;99597.11;1783457;80;21064;-64
2023/11/14 06:28:50;;;;;;;12.33;6.95;;;;;;;4.18;82.42;99598.28;1784194;80;21432;-63
2023/11/14 06:31:19;;;;;;;13.60;6.78;;;;;;;4.21;82.09;99606.06;1784092;80;21413;-63
2023/11/14 06:33:48;;;;;;;13.08;6.47;;;;;;;4.22;81.88;99595.05;1784102;80;21545;-64
2023/11/14 06:36:17;;;;;;;14.73;7.25;;;;;;;4.27;81.66;99586.38;1762598;80;21195;-64
2023/11/14 06:38:45;;;;;;;11.03;6.30;;;;;;;4.33;81.70;99585.67;1784223;80;21088;-64
2023/11/14 06:41:15;;;;;;;12.15;5.92;;;;;;;4.39;81.26;99584.95;1784400;79;21107;-63
2023/11/14 06:43:44;;;;;;;11.57;6.00;;;;;;;4.42;80.82;99575.95;1784508;80;21032;-63
2023/11/14 06:46:14;;;;;;;13.43;7.10;;;;;;;4.44;80.33;99575.27;1784240;80;20981;-65
2023/11/14 06:48:43;;;;;;;14.47;6.33;;;;;;;4.47;80.19;99565.92;1784306;80;21029;-64
2023/11/14 06:51:12;;;;;;;11.18;6.40;;;;;;;4.52;80.06;99564.88;1784156;80;20979;-64
2023/11/14 06:53:40;;;;;;;10.38;6.12;;;;;;;4.58;79.84;99556.05;1784171;80;21485;-64
2023/11/14 06:56:15;;;;;;;12.78;6.28;;;;;;;4.60;79.51;99549.94;1784348;80;21016;-64
2023/11/14 06:58:45;;;;;;;13.53;6.40;;;;;;;4.62;79.30;99550.59;1784162;79;21568;-64
2023/11/14 07:01:14;;;;;;;13.65;6.00;;;;;;;4.62;79.04;99553.31;1784498;80;21052;-67
2023/11/14 07:03:43;;;;;;;14.63;7.05;;;;;;;4.64;78.71;99553.97;1784189;79;21079;-64
2023/11/14 07:06:14;;;;;;;14.68;7.15;;;;;;;4.65;78.50;99554.82;1784153;80;21028;-62
2023/11/14 07:08:43;;;;;;;13.58;6.75;;;;;;;4.67;78.36;99545.47;1784151;80;21009;-63
2023/11/14 07:11:11;;;;;;;14.20;7.35;;;;;;;4.66;78.03;99546.50;1784369;80;21032;-63
2023/11/14 07:13:43;;;;;;;15.20;7.60;;;;;;;4.68;77.98;99540.89;1763188;80;21135;-64
2023/11/14 07:16:13;;;;;;;16.10;7.37;;;;;;;4.69;78.18;99542.58;1737749;80;21064;-64
2023/11/14 07:18:42;;;;;;;15.05;7.35;;;;;;;4.71;78.12;99544.09;1784195;80;21499;-64
2023/11/14 07:21:11;;;;;;;19.82;7.62;;;;;;;4.75;78.16;99540.50;1784352;80;21005;-63
2023/11/14 07:23:40;;;;;;;16.67;8.23;;;;;;;4.77;77.95;99539.29;1784240;80;21056;-67
2023/11/14 07:26:10;;;;;;;15.10;8.00;;;;;;;4.81;77.83;99534.86;1787554;79;21040;-64
2023/11/14 07:28:40;;;;;;;17.52;7.92;;;;;;;4.83;77.58;99531.45;1791358;80;21028;-64
2023/11/14 07:31:09;;;;;;;21.50;9.68;;;;;;;4.84;77.37;99519.56;1791401;80;21008;-65
2023/11/14 07:33:38;;;;;;;18.32;7.78;;;;;;;4.84;77.20;99508.20;1791482;80;21056;-65
2023/11/14 07:36:07;;;;;;;16.77;9.08;;;;;;;4.87;77.17;99506.98;1791440;80;21024;-64
2023/11/14 07:38:36;;;;;;;16.07;8.38;;;;;;;4.89;76.94;99514.44;1791363;80;21004;-65
2023/11/14 07:41:12;;;;;;;20.45;9.28;;;;;;;4.90;76.88;99497.97;1791341;80;20976;-63
2023/11/14 07:43:41;;;;;;;19.70;8.23;;;;;;;4.92;76.91;99482.85;1791424;80;21044;-65
2023/11/14 07:46:10;;;;;;;19.45;8.63;;;;;;;4.95;76.95;99477.90;1739479;80;21090;-65
2023/11/14 07:48:39;;;;;;;15.08;7.87;;;;;;;4.98;76.95;99466.67;1791259;80;21055;-65
2023/11/14 07:51:07;;;;;;;17.12;7.53;;;;;;;5.02;76.71;99461.72;1765217;80;21043;-65
2023/11/14 07:53:36;;;;;;;20.80;7.50;;;;;;;5.05;76.65;99450.48;1791305;80;21013;-65
2023/11/14 07:56:06;;;;;;;14.15;6.87;;;;;;;5.09;76.44;99446.38;1791388;80;21071;-64
2023/11/14 07:58:35;;;;;;;13.70;7.25;;;;;;;5.12;76.16;99439.21;1791293;80;21557;-64
2023/11/14 08:01:04;;;;;;;12.80;7.03;;;;;;;5.15;76.09;99442.07;1791566;80;21052;-64
2023/11/14 08:03:33;;;;;;;16.77;7.83;;;;;;;5.16;75.82;99432.89;1765272;80;21480;-64
2023/11/14 08:06:04;;;;;;;14.25;7.83;;;;;;;5.16;75.67;99431.53;1791294;79;21052;-65
2023/11/14 08:08:33;;;;;;;19.35;8.63;;;;;;;5.18;75.54;99426.25;1791509;79;21060;-65
2023/11/14 08:11:03;;;;;;;15.50;7.30;;;;;;;5.20;75.60;99431.49;1791346;80;21115;-64
2023/11/14 08:13:32;;;;;;;14.55;6.80;;;;;;;5.25;75.57;99431.80;1791264;80;21036;-65
2023/11/14 08:16:00;;;;;;;12.65;6.65;;;;;;;5.28;75.29;99429.56;1791645;80;21052;-65
2023/11/14 08:18:31;;;;;;;13.80;7.08;;;;;;;5.33;75.35;99429.84;1791473;80;21074;-65
2023/11/14 08:21:00;;;;;;;13.28;6.58;;;;;;;5.37;75.03;99431.14;1791470;80;21052;-64
2023/11/14 08:23:29;;;;;;;17.40;7.08;;;;;;;5.43;74.89;99442.29;1765252;80;21017;-64
2023/11/14 08:25:57;;;;;;;12.53;6.95;;;;;;;5.48;74.69;99452.91;1789375;80;21052;-65
2023/11/14 08:28:27;;;;;;;15.35;7.00;;;;;;;5.52;74.28;99465.09;1784181;80;21021;-65
2023/11/14 08:30:55;;;;;;;12.85;6.35;;;;;;;5.55;74.26;99469.31;1784313;80;21028;-64
2023/11/14 08:33:24;;;;;;;13.53;6.05;;;;;;;5.61;74.21;99479.42;1784121;80;21068;-64
2023/11/14 08:35:52;;;;;;;14.10;6.50;;;;;;;5.66;73.79;99470.19;1784564;80;21047;-64
2023/11/14 08:38:23;;;;;;;12.85;5.80;;;;;;;5.70;73.32;99471.50;1784111;80;21044;-65
2023/11/14 08:40:52;;;;;;;9.80;5.60;;;;;;;5.75;72.92;99475.84;1762336;80;21112;-65
2023/11/14 08:43:21;;;;;;;11.33;5.42;;;;;;;5.78;72.72;99460.52;1784140;80;21505;-64
2023/11/14 08:45:51;;;;;;;14.40;6.08;;;;;;;5.82;72.16;99457.75;1783943;80;21510;-64
2023/11/14 08:48:21;;;;;;;11.38;5.25;;;;;;;5.86;71.80;99448.21;1784160;80;21051;-69
2023/11/14 08:50:50;;;;;;;10.15;4.85;;;;;;;5.91;71.28;99436.28;1784309;80;21086;-64
2023/11/14 08:53:21;;;;;;;9.78;4.78;;;;;;;5.96;70.77;99428.39;1762559;80;21021;-65
2023/11/14 08:55:53;;;;;;;7.80;4.30;;;;;;;6.03;70.46;99418.95;1784151;79;21524;-64
2023/11/14 08:58:21;;;;;;;10.68;4.55;;;;;;;6.11;69.90;99405.74;1762558;79;21020;-65
2023/11/14 09:00:53;;;;;;;9.20;4.55;;;;;;;6.19;69.47;99401.54;1784065;79;21009;-64
2023/11/14 09:03:23;;;;;;;9.25;4.45;;;;;;;6.25;69.16;99398.04;1784148;80;21425;-64
2023/11/14 09:05:53;;;;;;;8.03;4.70;;;;;;;6.31;68.61;99393.18;1762597;80;21055;-64
2023/11/14 09:08:22;;;;;;;8.15;4.75;;;;;;;6.38;68.26;99387.28;1784202;79;21020;-65
2023/11/14 09:10:52;;;;;;;8.60;4.03;;;;;;;6.43;67.83;99364.93;1784043;80;21056;-64
2023/11/14 09:13:21;;;;;;;8.58;4.65;;;;;;;6.49;67.48;99355.98;1784006;79;21461;-64
2023/11/14 09:15:50;;;;;;;8.75;4.35;;;;;;;6.54;67.12;99353.02;1762582;80;21036;-64
2023/11/14 09:18:18;;;;;;;7.90;4.45;;;;;;;6.60;66.86;99359.55;1782868;80;21016;-68
2023/11/14 09:20:47;;;;;;;9.13;4.72;;;;;;;6.66;66.83;99371.01;1752898;82;21056;-66
2023/11/14 09:23:16;;;;;;;7.03;4.08;;;;;;;6.72;67.03;99381.63;1755814;81;21109;-65
2023/11/14 09:25:44;;;;;;;7.20;3.98;;;;;;;6.76;66.48;99372.02;1754577;81;21436;-65
2023/11/14 09:28:14;;;;;;;10.20;4.62;;;;;;;6.78;66.38;99380.83;1754021;80;21454;-63
2023/11/14 09:30:43;;;;;;;8.90;4.80;;;;;;;6.81;66.30;99379.08;1745621;82;21015;-65
2023/11/14 09:33:13;;;;;;;8.93;4.72;;;;;;;6.82;66.03;99378.03;1759358;81;21029;-65
2023/11/14 09:35:49;;;;;;;11.68;4.87;;;;;;;6.81;65.72;99375.83;1760065;81;21089;-65
2023/11/14 09:38:19;;;;;;;9.43;4.55;;;;;;;6.84;65.90;99376.80;1729891;82;21146;-71
2023/11/14 09:40:48;;;;;;;9.88;4.22;;;;;;;6.84;65.98;99367.27;1734451;82;21500;-64
2023/11/14 09:43:23;;;;;;;9.45;4.53;;;;;;;6.86;65.98;99365.70;1751117;81;21478;-65
2023/11/14 09:45:56;;;;;;;8.00;4.30;;;;;;;6.86;65.95;99370.63;1764375;81;21026;-66
2023/11/14 09:48:26;;;;;;;8.23;4.33;;;;;;;6.90;65.65;99366.98;1735009;81;21470;-66
2023/11/14 09:50:55;;;;;;;7.05;3.85;;;;;;;6.92;65.26;99360.83;1764111;81;21042;-67
2023/11/14 09:53:24;;;;;;;8.95;3.87;;;;;;;6.95;65.75;99352.25;1764088;81;21002;-65
2023/11/14 09:55:55;;;;;;;12.23;4.20;;;;;;;6.97;65.73;99349.66;1733252;81;21074;-67
2023/11/14 09:58:24;;;;;;;7.55;4.40;;;;;;;7.00;65.89;99345.17;1759799;81;21081;-66
2023/11/14 10:00:53;;;;;;;7.58;4.20;;;;;;;7.07;66.31;99334.31;1759936;81;21555;-66
2023/11/14 10:03:22;;;;;;;7.92;4.30;;;;;;;7.13;66.45;99336.23;1760005;81;21050;-66
2023/11/14 10:05:51;;;;;;;7.78;4.15;;;;;;;7.18;66.73;99319.31;1759910;81;21122;-66
2023/11/14 10:08:20;;;;;;;5.95;3.80;;;;;;;7.24;67.88;99317.14;1760087;81;21465;-67
2023/11/14 10:11:11;;;;;;;6.95;3.60;;;;;;;7.30;67.02;99308.15;1760089;81;21018;-67
2023/11/14 10:13:44;;;;;;;10.38;4.10;;;;;;;7.31;66.93;99305.75;1759628;81;21830;-65
2023/11/14 10:16:19;;;;;;;7.37;3.95;;;;;;;7.32;66.37;99304.70;1703994;83;21031;-67
2023/11/14 10:18:50;;;;;;;6.80;4.10;;;;;;;7.31;66.29;99295.69;1759992;81;21073;-67
2023/11/14 10:21:30;;;;;;;6.22;4.10;;;;;;;7.29;66.42;99292.33;1760192;81;21074;-66
2023/11/14 10:24:02;;;;;;;8.33;4.25;;;;;;;7.25;66.82;99285.61;1760168;81;21492;-66
2023/11/14 10:26:32;;;;;;;7.12;4.10;;;;;;;7.20;67.61;99275.84;1702794;83;21065;-64
2023/11/14 10:29:03;;;;;;;7.10;3.80;;;;;;;7.17;68.12;99271.32;1730256;83;21018;-67
2023/11/14 10:31:40;;;;;;;7.80;4.35;;;;;;;7.10;68.59;99275.88;1734480;82;21038;-66
2023/11/14 10:34:28;;;;;;;8.60;4.20;;;;;;;7.03;69.49;99269.55;1736571;82;21105;-67
2023/11/14 10:37:00;;;;;;;8.85;4.40;;;;;;;6.94;69.55;99266.16;1736505;82;21026;-66
2023/11/14 10:39:53;;;;;;;7.62;4.05;;;;;;;6.86;71.35;99255.44;1735516;82;21097;-66
2023/11/14 10:42:22;;;;;;;7.62;3.52;;;;;;;6.78;73.01;99255.09;1736505;82;21129;-66
2023/11/14 10:45:01;;;;;;;10.93;4.03;;;;;;;6.69;73.90;99257.66;1736451;82;21442;-68
2023/11/14 10:47:41;;;;;;;7.08;4.30;;;;;;;6.57;74.94;99245.66;1736782;82;21054;-64
2023/11/14 10:50:30;;;;;;;6.42;3.85;;;;;;;6.47;77.04;99241.90;1736834;82;21494;-66
2023/11/14 10:53:00;;;;;;;6.37;3.75;;;;;;;6.42;78.44;99242.18;1736388;82;21010;-66
2023/11/14 10:55:30;;;;;;;9.05;4.03;;;;;;;6.35;79.27;99232.09;1736747;82;21113;-66
2023/11/14 10:57:58;;;;;;;10.53;4.60;;;;;;;6.28;79.87;99226.29;1736617;82;21106;-66
2023/11/14 11:00:32;;;;;;;9.73;4.17;;;;;;;6.27;80.93;99217.81;1736582;82;22023;-67
2023/11/14 11:03:03;;;;;;;7.15;3.60;;;;;;;6.26;81.48;99212.05;1683598;83;21471;-67
2023/11/14 11:05:32;;;;;;;9.73;4.90;;;;;;;6.21;82.33;99193.61;1731318;83;21081;-67
2023/11/14 11:08:05;;;;;;;8.70;4.33;;;;;;;6.19;83.05;99193.48;1705770;83;21066;-66
2023/11/14 11:10:36;;;;;;;7.60;4.15;;;;;;;6.21;83.71;99194.97;1731487;83;21130;-67
2023/11/14 11:13:14;;;;;;;9.28;4.20;;;;;;;6.16;83.74;99178.93;1731520;83;21054;-68
2023/11/14 11:15:50;;;;;;;8.00;4.87;;;;;;;6.12;84.37;99179.00;1731262;83;21089;-66
2023/11/14 11:18:34;;;;;;;6.70;4.67;;;;;;;6.08;84.91;99164.13;1731926;83;21078;-66
2023/11/14 11:21:12;;;;;;;9.53;4.55;;;;;;;6.07;85.41;99163.29;1731409;83;21446;-71
2023/11/14 11:24:12;;;;;;;8.53;4.72;;;;;;;6.04;85.74;99146.02;1731267;83;21030;-66
2023/11/14 11:27:20;;;;;;;23.65;12.95;;;;;;;6.01;85.98;99137.73;1730649;83;21035;-66
2023/11/14 11:30:04;;;;;;;14.10;5.60;;;;;;;5.96;86.44;99126.63;1730717;83;21491;-65
2023/11/14 11:32:37;;;;;;;10.20;5.35;;;;;;;5.96;86.93;99126.63;1707695;84;21055;-66
2023/11/14 11:35:22;;;;;;;9.90;5.55;;;;;;;5.94;87.48;99127.86;1708170;84;21047;-65
2023/11/14 11:37:58;;;;;;;12.07;5.75;;;;;;;5.93;87.88;99112.59;1707275;84;21067;-65
2023/11/14 11:40:28;;;;;;;14.25;5.92;;;;;;;5.92;88.32;99115.83;1698693;84;21071;-68
2023/11/14 11:43:00;;;;;;;11.53;6.05;;;;;;;5.92;88.61;99106.31;1707230;84;21075;-68
2023/11/14 11:45:41;;;;;;;11.70;6.45;;;;;;;5.95;89.16;99096.40;1706846;84;21554;-66
2023/11/14 11:48:34;;;;;;;18.25;6.87;;;;;;;5.97;89.35;99091.60;1707587;84;21554;-68
2023/11/14 11:51:26;;;;;;;14.13;6.42;;;;;;;5.95;89.50;99072.45;1707203;84;21091;-67